Search for airport 
image banner adimage banner adimage banner ad
image banner ad

CA18 - Sunrise Dusters

Located in Robbins, United States

ICAO - CA18, IATA -

Data provided by Airmate  

General information

Coordinates: N38°52'20" W121°42'36"
Elevation is 24 feet MSL.
Magnetic variation is 16° East
View others Airports in California

Operational data

Special qualification required
Current time UTC:
Current local time:
Weather at : KSMF - Sacramento Intl ( 22 km )
METAR: KSMF 141253Z 14009KT 10SM SCT250 17/16 A2997 RMK AO2 SLP148 T01720156
TAF: KSMF 141206Z 1412/1512 16009KT P6SM SKC TEMPO 1413/1417 BKN012 FM142000 19014G20KT P6SM FEW250 FM150600 16013KT P6SM SKC
View NOTAMs / SUP AIP / TFR affecting this airport [VIEW]
Communications frequencies: [VIEW]

Runways:

RWY identifierQFULength (ft)Width (ft)SurfaceLDA (ft)
14310035OTHER
32310035OTHER

Airport contact information

Address: Robbins United States

Satellite view of CA18